sensor_id;sensor_type;location;lat;lon;timestamp;P1;durP1;ratioP1;P2;durP2;ratioP2
23496;SDS011;11925;48.122;11.560;2022-07-29T00:01:40;2.70;;;1.50;;
23496;SDS011;11925;48.122;11.560;2022-07-29T00:04:11;1.80;;;1.30;;
23496;SDS011;11925;48.122;11.560;2022-07-29T00:06:40;3.00;;;1.45;;
23496;SDS011;11925;48.122;11.560;2022-07-29T00:09:09;2.25;;;2.05;;
23496;SDS011;11925;48.122;11.560;2022-07-29T00:11:37;2.47;;;1.25;;
23496;SDS011;11925;48.122;11.560;2022-07-29T00:14:06;2.13;;;1.48;;
23496;SDS011;11925;48.122;11.560;2022-07-29T00:16:34;2.47;;;1.60;;
23496;SDS011;11925;48.122;11.560;2022-07-29T00:19:03;1.80;;;1.45;;
23496;SDS011;11925;48.122;11.560;2022-07-29T00:21:34;1.88;;;1.30;;
23496;SDS011;11925;48.122;11.560;2022-07-29T00:24:03;3.00;;;1.65;;
23496;SDS011;11925;48.122;11.560;2022-07-29T00:26:31;1.80;;;1.42;;
23496;SDS011;11925;48.122;11.560;2022-07-29T00:29:00;2.97;;;1.58;;
23496;SDS011;11925;48.122;11.560;2022-07-29T00:31:49;3.85;;;1.58;;
23496;SDS011;11925;48.122;11.560;2022-07-29T00:34:18;5.07;;;1.73;;
23496;SDS011;11925;48.122;11.560;2022-07-29T00:37:05;3.15;;;1.80;;
23496;SDS011;11925;48.122;11.560;2022-07-29T00:39:33;4.60;;;1.48;;
23496;SDS011;11925;48.122;11.560;2022-07-29T00:42:02;3.20;;;1.77;;
23496;SDS011;11925;48.122;11.560;2022-07-29T00:44:35;2.20;;;1.55;;
23496;SDS011;11925;48.122;11.560;2022-07-29T00:47:04;2.35;;;1.60;;
23496;SDS011;11925;48.122;11.560;2022-07-29T00:49:33;2.92;;;1.80;;
23496;SDS011;11925;48.122;11.560;2022-07-29T00:52:02;2.33;;;1.50;;
23496;SDS011;11925;48.122;11.560;2022-07-29T00:54:33;3.40;;;1.53;;
23496;SDS011;11925;48.122;11.560;2022-07-29T00:57:10;2.20;;;1.58;;
23496;SDS011;11925;48.122;11.560;2022-07-29T00:59:39;2.30;;;1.63;;
23496;SDS011;11925;48.122;11.560;2022-07-29T01:02:07;2.38;;;1.63;;
23496;SDS011;11925;48.122;11.560;2022-07-29T01:04:36;2.08;;;1.60;;
23496;SDS011;11925;48.122;11.560;2022-07-29T01:07:06;2.45;;;1.30;;
23496;SDS011;11925;48.122;11.560;2022-07-29T01:09:35;2.50;;;1.50;;
23496;SDS011;11925;48.122;11.560;2022-07-29T01:12:12;1.83;;;1.30;;
23496;SDS011;11925;48.122;11.560;2022-07-29T01:14:44;1.90;;;1.48;;
23496;SDS011;11925;48.122;11.560;2022-07-29T01:17:14;4.03;;;1.50;;
23496;SDS011;11925;48.122;11.560;2022-07-29T01:19:49;2.05;;;1.38;;
23496;SDS011;11925;48.122;11.560;2022-07-29T01:22:27;1.88;;;1.42;;
23496;SDS011;11925;48.122;11.560;2022-07-29T01:25:21;1.38;;;1.20;;
23496;SDS011;11925;48.122;11.560;2022-07-29T01:28:17;1.83;;;1.63;;
23496;SDS011;11925;48.122;11.560;2022-07-29T01:31:04;2.17;;;1.42;;
23496;SDS011;11925;48.122;11.560;2022-07-29T01:33:38;1.30;;;1.10;;
23496;SDS011;11925;48.122;11.560;2022-07-29T01:36:18;1.85;;;1.20;;
23496;SDS011;11925;48.122;11.560;2022-07-29T01:38:53;1.63;;;1.25;;
23496;SDS011;11925;48.122;11.560;2022-07-29T01:41:26;2.45;;;1.23;;
23496;SDS011;11925;48.122;11.560;2022-07-29T01:44:04;1.50;;;1.20;;
23496;SDS011;11925;48.122;11.560;2022-07-29T01:46:42;1.70;;;1.27;;
23496;SDS011;11925;48.122;11.560;2022-07-29T01:49:20;1.58;;;1.10;;
23496;SDS011;11925;48.122;11.560;2022-07-29T01:51:53;2.15;;;1.15;;
23496;SDS011;11925;48.122;11.560;2022-07-29T01:54:26;2.33;;;1.13;;
23496;SDS011;11925;48.122;11.560;2022-07-29T01:57:04;1.35;;;1.00;;
23496;SDS011;11925;48.122;11.560;2022-07-29T01:59:37;2.33;;;1.35;;
23496;SDS011;11925;48.122;11.560;2022-07-29T02:02:06;1.88;;;1.15;;
23496;SDS011;11925;48.122;11.560;2022-07-29T02:04:36;2.28;;;1.30;;
23496;SDS011;11925;48.122;11.560;2022-07-29T02:07:06;1.15;;;0.70;;
23496;SDS011;11925;48.122;11.560;2022-07-29T02:09:38;1.27;;;0.77;;
23496;SDS011;11925;48.122;11.560;2022-07-29T02:12:08;1.17;;;0.98;;
23496;SDS011;11925;48.122;11.560;2022-07-29T02:14:41;1.88;;;1.13;;
23496;SDS011;11925;48.122;11.560;2022-07-29T02:17:12;2.22;;;0.98;;
23496;SDS011;11925;48.122;11.560;2022-07-29T02:19:44;1.17;;;0.80;;
23496;SDS011;11925;48.122;11.560;2022-07-29T02:22:13;1.17;;;0.98;;
23496;SDS011;11925;48.122;11.560;2022-07-29T02:24:44;1.33;;;0.90;;
23496;SDS011;11925;48.122;11.560;2022-07-29T02:27:13;1.55;;;0.82;;
23496;SDS011;11925;48.122;11.560;2022-07-29T02:29:44;1.77;;;0.95;;
23496;SDS011;11925;48.122;11.560;2022-07-29T02:32:14;2.03;;;1.00;;
23496;SDS011;11925;48.122;11.560;2022-07-29T02:34:44;1.40;;;0.80;;
23496;SDS011;11925;48.122;11.560;2022-07-29T02:37:15;1.60;;;1.00;;
23496;SDS011;11925;48.122;11.560;2022-07-29T02:39:44;1.63;;;0.85;;
23496;SDS011;11925;48.122;11.560;2022-07-29T02:42:15;1.77;;;0.90;;
23496;SDS011;11925;48.122;11.560;2022-07-29T02:44:46;1.30;;;1.00;;
23496;SDS011;11925;48.122;11.560;2022-07-29T02:47:17;1.27;;;0.88;;
23496;SDS011;11925;48.122;11.560;2022-07-29T02:49:51;2.63;;;1.00;;
23496;SDS011;11925;48.122;11.560;2022-07-29T02:52:26;1.65;;;1.10;;
23496;SDS011;11925;48.122;11.560;2022-07-29T02:54:58;2.50;;;0.98;;
23496;SDS011;11925;48.122;11.560;2022-07-29T02:57:32;1.40;;;1.00;;
23496;SDS011;11925;48.122;11.560;2022-07-29T03:00:22;1.77;;;1.00;;
23496;SDS011;11925;48.122;11.560;2022-07-29T03:02:53;1.65;;;1.00;;
23496;SDS011;11925;48.122;11.560;2022-07-29T03:05:24;1.95;;;1.00;;
23496;SDS011;11925;48.122;11.560;2022-07-29T03:07:55;1.50;;;0.93;;
23496;SDS011;11925;48.122;11.560;2022-07-29T03:10:26;1.35;;;0.90;;
23496;SDS011;11925;48.122;11.560;2022-07-29T03:12:55;2.60;;;0.90;;
23496;SDS011;11925;48.122;11.560;2022-07-29T03:15:26;2.13;;;1.30;;
23496;SDS011;11925;48.122;11.560;2022-07-29T03:17:55;3.05;;;1.40;;
23496;SDS011;11925;48.122;11.560;2022-07-29T03:20:24;1.88;;;1.20;;
23496;SDS011;11925;48.122;11.560;2022-07-29T03:22:53;2.63;;;1.20;;
23496;SDS011;11925;48.122;11.560;2022-07-29T03:25:21;2.25;;;1.33;;
23496;SDS011;11925;48.122;11.560;2022-07-29T03:27:49;2.38;;;1.30;;
23496;SDS011;11925;48.122;11.560;2022-07-29T03:30:18;2.78;;;1.40;;
23496;SDS011;11925;48.122;11.560;2022-07-29T03:32:49;1.85;;;1.13;;
23496;SDS011;11925;48.122;11.560;2022-07-29T03:35:18;1.35;;;1.00;;
23496;SDS011;11925;48.122;11.560;2022-07-29T03:37:47;1.42;;;1.08;;
23496;SDS011;11925;48.122;11.560;2022-07-29T03:40:16;2.47;;;1.10;;
23496;SDS011;11925;48.122;11.560;2022-07-29T03:42:47;1.98;;;1.00;;
23496;SDS011;11925;48.122;11.560;2022-07-29T03:45:17;1.95;;;1.20;;
23496;SDS011;11925;48.122;11.560;2022-07-29T03:47:49;1.92;;;1.10;;
23496;SDS011;11925;48.122;11.560;2022-07-29T03:50:26;1.08;;;0.90;;
23496;SDS011;11925;48.122;11.560;2022-07-29T03:52:56;1.35;;;1.00;;
23496;SDS011;11925;48.122;11.560;2022-07-29T03:55:25;1.38;;;1.08;;
23496;SDS011;11925;48.122;11.560;2022-07-29T03:57:56;1.95;;;1.33;;
23496;SDS011;11925;48.122;11.560;2022-07-29T04:00:25;2.10;;;1.02;;
23496;SDS011;11925;48.122;11.560;2022-07-29T04:02:56;1.83;;;1.10;;
23496;SDS011;11925;48.122;11.560;2022-07-29T04:05:25;1.58;;;1.10;;
23496;SDS011;11925;48.122;11.560;2022-07-29T04:07:53;2.28;;;1.33;;
23496;SDS011;11925;48.122;11.560;2022-07-29T04:10:23;1.67;;;1.00;;
23496;SDS011;11925;48.122;11.560;2022-07-29T04:12:57;4.05;;;1.30;;
23496;SDS011;11925;48.122;11.560;2022-07-29T04:15:26;1.90;;;1.20;;
23496;SDS011;11925;48.122;11.560;2022-07-29T04:17:58;2.92;;;0.95;;
23496;SDS011;11925;48.122;11.560;2022-07-29T04:20:26;1.63;;;0.88;;
23496;SDS011;11925;48.122;11.560;2022-07-29T04:22:55;1.63;;;1.00;;
23496;SDS011;11925;48.122;11.560;2022-07-29T04:25:23;2.47;;;1.10;;
23496;SDS011;11925;48.122;11.560;2022-07-29T04:27:51;1.60;;;1.02;;
23496;SDS011;11925;48.122;11.560;2022-07-29T04:30:29;3.00;;;1.00;;
23496;SDS011;11925;48.122;11.560;2022-07-29T04:33:00;2.63;;;1.10;;
23496;SDS011;11925;48.122;11.560;2022-07-29T04:35:29;2.00;;;1.58;;
23496;SDS011;11925;48.122;11.560;2022-07-29T04:38:04;2.05;;;1.25;;
23496;SDS011;11925;48.122;11.560;2022-07-29T04:40:42;2.85;;;1.30;;
23496;SDS011;11925;48.122;11.560;2022-07-29T04:43:12;2.55;;;1.40;;
23496;SDS011;11925;48.122;11.560;2022-07-29T04:45:48;1.85;;;1.10;;
23496;SDS011;11925;48.122;11.560;2022-07-29T04:48:18;3.13;;;1.20;;
23496;SDS011;11925;48.122;11.560;2022-07-29T04:50:53;1.35;;;1.00;;
23496;SDS011;11925;48.122;11.560;2022-07-29T04:53:22;2.80;;;1.10;;
23496;SDS011;11925;48.122;11.560;2022-07-29T04:55:50;1.75;;;1.00;;
23496;SDS011;11925;48.122;11.560;2022-07-29T04:58:21;1.92;;;1.23;;
23496;SDS011;11925;48.122;11.560;2022-07-29T05:00:50;2.10;;;1.05;;
23496;SDS011;11925;48.122;11.560;2022-07-29T05:03:20;2.22;;;1.20;;
23496;SDS011;11925;48.122;11.560;2022-07-29T05:05:48;2.88;;;1.33;;
23496;SDS011;11925;48.122;11.560;2022-07-29T05:08:17;1.42;;;1.00;;
23496;SDS011;11925;48.122;11.560;2022-07-29T05:10:45;1.30;;;1.10;;
23496;SDS011;11925;48.122;11.560;2022-07-29T05:13:13;2.78;;;1.15;;
23496;SDS011;11925;48.122;11.560;2022-07-29T05:15:42;2.00;;;1.38;;
23496;SDS011;11925;48.122;11.560;2022-07-29T05:18:11;2.80;;;1.70;;
23496;SDS011;11925;48.122;11.560;2022-07-29T05:20:41;3.70;;;1.50;;
23496;SDS011;11925;48.122;11.560;2022-07-29T05:23:09;5.25;;;1.52;;
23496;SDS011;11925;48.122;11.560;2022-07-29T05:25:39;1.85;;;1.50;;
23496;SDS011;11925;48.122;11.560;2022-07-29T05:28:10;2.58;;;1.55;;
23496;SDS011;11925;48.122;11.560;2022-07-29T05:30:38;3.67;;;2.00;;
23496;SDS011;11925;48.122;11.560;2022-07-29T05:33:06;2.25;;;1.40;;
23496;SDS011;11925;48.122;11.560;2022-07-29T05:35:56;5.00;;;1.60;;
23496;SDS011;11925;48.122;11.560;2022-07-29T05:38:26;2.90;;;1.50;;
23496;SDS011;11925;48.122;11.560;2022-07-29T05:40:56;3.72;;;1.50;;
23496;SDS011;11925;48.122;11.560;2022-07-29T05:43:25;4.45;;;1.58;;
23496;SDS011;11925;48.122;11.560;2022-07-29T05:45:54;2.00;;;1.42;;
23496;SDS011;11925;48.122;11.560;2022-07-29T05:48:22;2.05;;;1.30;;
23496;SDS011;11925;48.122;11.560;2022-07-29T05:50:51;3.03;;;1.48;;
23496;SDS011;11925;48.122;11.560;2022-07-29T05:53:20;3.20;;;1.80;;
23496;SDS011;11925;48.122;11.560;2022-07-29T05:55:49;2.00;;;1.52;;
23496;SDS011;11925;48.122;11.560;2022-07-29T05:58:18;3.35;;;1.63;;
23496;SDS011;11925;48.122;11.560;2022-07-29T06:00:46;3.28;;;1.52;;
23496;SDS011;11925;48.122;11.560;2022-07-29T06:03:15;2.53;;;1.60;;
23496;SDS011;11925;48.122;11.560;2022-07-29T06:05:43;2.95;;;1.73;;
23496;SDS011;11925;48.122;11.560;2022-07-29T06:08:12;2.78;;;1.40;;
23496;SDS011;11925;48.122;11.560;2022-07-29T06:10:41;2.25;;;1.30;;
23496;SDS011;11925;48.122;11.560;2022-07-29T06:13:11;3.60;;;1.70;;
23496;SDS011;11925;48.122;11.560;2022-07-29T06:15:42;2.45;;;1.50;;
23496;SDS011;11925;48.122;11.560;2022-07-29T06:18:11;2.63;;;1.52;;
23496;SDS011;11925;48.122;11.560;2022-07-29T06:20:40;3.63;;;1.70;;
23496;SDS011;11925;48.122;11.560;2022-07-29T06:23:08;3.22;;;1.60;;
23496;SDS011;11925;48.122;11.560;2022-07-29T06:25:36;3.00;;;1.67;;
23496;SDS011;11925;48.122;11.560;2022-07-29T06:28:08;2.63;;;1.75;;
23496;SDS011;11925;48.122;11.560;2022-07-29T06:30:36;3.53;;;1.98;;
23496;SDS011;11925;48.122;11.560;2022-07-29T06:33:05;3.72;;;1.70;;
23496;SDS011;11925;48.122;11.560;2022-07-29T06:35:34;2.58;;;1.60;;
23496;SDS011;11925;48.122;11.560;2022-07-29T06:38:08;3.40;;;1.90;;
23496;SDS011;11925;48.122;11.560;2022-07-29T06:40:58;2.33;;;1.73;;
23496;SDS011;11925;48.122;11.560;2022-07-29T06:43:32;2.10;;;1.73;;
23496;SDS011;11925;48.122;11.560;2022-07-29T06:46:19;2.40;;;1.60;;
23496;SDS011;11925;48.122;11.560;2022-07-29T06:48:49;2.50;;;1.70;;
23496;SDS011;11925;48.122;11.560;2022-07-29T06:51:19;3.00;;;2.10;;
23496;SDS011;11925;48.122;11.560;2022-07-29T06:53:50;5.50;;;2.20;;
23496;SDS011;11925;48.122;11.560;2022-07-29T06:56:28;4.40;;;2.50;;
23496;SDS011;11925;48.122;11.560;2022-07-29T06:59:05;3.28;;;2.08;;
23496;SDS011;11925;48.122;11.560;2022-07-29T07:01:34;2.70;;;2.00;;
23496;SDS011;11925;48.122;11.560;2022-07-29T07:04:03;3.80;;;1.95;;
23496;SDS011;11925;48.122;11.560;2022-07-29T07:06:32;2.58;;;1.70;;
23496;SDS011;11925;48.122;11.560;2022-07-29T07:09:00;3.80;;;1.80;;
23496;SDS011;11925;48.122;11.560;2022-07-29T07:11:29;3.25;;;1.77;;
23496;SDS011;11925;48.122;11.560;2022-07-29T07:13:57;4.43;;;1.85;;
23496;SDS011;11925;48.122;11.560;2022-07-29T07:16:30;3.75;;;1.90;;
23496;SDS011;11925;48.122;11.560;2022-07-29T07:18:59;2.63;;;1.70;;
23496;SDS011;11925;48.122;11.560;2022-07-29T07:21:27;3.08;;;1.60;;
23496;SDS011;11925;48.122;11.560;2022-07-29T07:23:56;3.15;;;1.70;;
23496;SDS011;11925;48.122;11.560;2022-07-29T07:26:25;4.55;;;2.05;;
23496;SDS011;11925;48.122;11.560;2022-07-29T07:28:54;5.40;;;1.77;;
23496;SDS011;11925;48.122;11.560;2022-07-29T07:31:22;2.33;;;1.80;;
23496;SDS011;11925;48.122;11.560;2022-07-29T07:33:52;2.83;;;1.70;;
23496;SDS011;11925;48.122;11.560;2022-07-29T07:36:21;3.95;;;1.67;;
23496;SDS011;11925;48.122;11.560;2022-07-29T07:38:50;2.88;;;1.70;;
23496;SDS011;11925;48.122;11.560;2022-07-29T07:41:18;2.85;;;1.73;;
23496;SDS011;11925;48.122;11.560;2022-07-29T07:43:47;3.95;;;1.92;;
23496;SDS011;11925;48.122;11.560;2022-07-29T07:46:15;2.70;;;1.75;;
23496;SDS011;11925;48.122;11.560;2022-07-29T07:48:43;3.00;;;1.75;;
23496;SDS011;11925;48.122;11.560;2022-07-29T07:51:13;2.72;;;2.00;;
23496;SDS011;11925;48.122;11.560;2022-07-29T07:53:41;2.35;;;1.60;;
23496;SDS011;11925;48.122;11.560;2022-07-29T07:56:11;2.40;;;1.60;;
23496;SDS011;11925;48.122;11.560;2022-07-29T07:58:39;2.35;;;1.95;;
23496;SDS011;11925;48.122;11.560;2022-07-29T08:01:07;3.00;;;1.95;;
23496;SDS011;11925;48.122;11.560;2022-07-29T08:03:37;2.70;;;1.80;;
23496;SDS011;11925;48.122;11.560;2022-07-29T08:06:05;3.55;;;1.77;;
23496;SDS011;11925;48.122;11.560;2022-07-29T08:08:35;1.88;;;1.52;;
23496;SDS011;11925;48.122;11.560;2022-07-29T08:11:03;3.92;;;1.80;;
23496;SDS011;11925;48.122;11.560;2022-07-29T08:13:35;2.35;;;1.80;;
23496;SDS011;11925;48.122;11.560;2022-07-29T08:16:05;2.40;;;1.55;;
23496;SDS011;11925;48.122;11.560;2022-07-29T08:18:42;6.00;;;1.80;;
23496;SDS011;11925;48.122;11.560;2022-07-29T08:21:11;4.03;;;1.60;;
23496;SDS011;11925;48.122;11.560;2022-07-29T08:23:43;3.03;;;1.70;;
23496;SDS011;11925;48.122;11.560;2022-07-29T08:26:27;2.15;;;1.65;;
23496;SDS011;11925;48.122;11.560;2022-07-29T08:28:55;2.92;;;1.48;;
23496;SDS011;11925;48.122;11.560;2022-07-29T08:31:23;2.55;;;1.70;;
23496;SDS011;11925;48.122;11.560;2022-07-29T08:33:52;2.88;;;1.45;;
23496;SDS011;11925;48.122;11.560;2022-07-29T08:36:22;2.50;;;1.60;;
23496;SDS011;11925;48.122;11.560;2022-07-29T08:38:52;2.95;;;1.90;;
23496;SDS011;11925;48.122;11.560;2022-07-29T08:41:21;3.03;;;1.77;;
23496;SDS011;11925;48.122;11.560;2022-07-29T08:43:49;4.45;;;1.67;;
23496;SDS011;11925;48.122;11.560;2022-07-29T08:46:18;4.15;;;1.85;;
23496;SDS011;11925;48.122;11.560;2022-07-29T08:48:48;2.15;;;1.65;;
23496;SDS011;11925;48.122;11.560;2022-07-29T08:51:18;3.13;;;1.52;;
23496;SDS011;11925;48.122;11.560;2022-07-29T08:53:48;2.40;;;1.45;;
23496;SDS011;11925;48.122;11.560;2022-07-29T08:56:19;3.97;;;1.95;;
23496;SDS011;11925;48.122;11.560;2022-07-29T08:58:48;2.70;;;2.00;;
23496;SDS011;11925;48.122;11.560;2022-07-29T09:01:21;2.63;;;1.77;;
23496;SDS011;11925;48.122;11.560;2022-07-29T09:04:02;2.10;;;1.90;;
23496;SDS011;11925;48.122;11.560;2022-07-29T09:06:32;3.28;;;1.90;;
23496;SDS011;11925;48.122;11.560;2022-07-29T09:09:04;3.30;;;2.08;;
23496;SDS011;11925;48.122;11.560;2022-07-29T09:11:36;3.13;;;2.40;;
23496;SDS011;11925;48.122;11.560;2022-07-29T09:14:05;3.30;;;2.38;;
23496;SDS011;11925;48.122;11.560;2022-07-29T09:16:43;5.18;;;3.00;;
23496;SDS011;11925;48.122;11.560;2022-07-29T09:19:19;2.95;;;2.40;;
23496;SDS011;11925;48.122;11.560;2022-07-29T09:21:49;3.55;;;2.60;;
23496;SDS011;11925;48.122;11.560;2022-07-29T09:24:42;5.32;;;2.35;;
23496;SDS011;11925;48.122;11.560;2022-07-29T09:27:19;4.25;;;2.33;;
23496;SDS011;11925;48.122;11.560;2022-07-29T09:29:55;5.15;;;2.72;;
23496;SDS011;11925;48.122;11.560;2022-07-29T09:32:25;3.55;;;2.50;;
23496;SDS011;11925;48.122;11.560;2022-07-29T09:37:47;5.00;;;2.72;;
23496;SDS011;11925;48.122;11.560;2022-07-29T09:40:17;4.63;;;3.00;;
23496;SDS011;11925;48.122;11.560;2022-07-29T09:42:48;3.90;;;2.75;;
23496;SDS011;11925;48.122;11.560;2022-07-29T09:45:26;5.18;;;3.45;;
23496;SDS011;11925;48.122;11.560;2022-07-29T09:47:56;3.50;;;3.00;;
23496;SDS011;11925;48.122;11.560;2022-07-29T09:50:36;3.83;;;3.20;;
23496;SDS011;11925;48.122;11.560;2022-07-29T09:53:06;6.50;;;3.50;;
23496;SDS011;11925;48.122;11.560;2022-07-29T09:55:46;5.28;;;3.17;;
23496;SDS011;11925;48.122;11.560;2022-07-29T09:58:19;5.53;;;3.00;;
23496;SDS011;11925;48.122;11.560;2022-07-29T10:03:17;4.63;;;3.58;;
23496;SDS011;11925;48.122;11.560;2022-07-29T10:05:46;6.93;;;4.00;;
23496;SDS011;11925;48.122;11.560;2022-07-29T10:08:32;5.43;;;4.30;;
23496;SDS011;11925;48.122;11.560;2022-07-29T10:11:08;4.72;;;3.75;;
23496;SDS011;11925;48.122;11.560;2022-07-29T10:13:39;4.97;;;3.78;;
23496;SDS011;11925;48.122;11.560;2022-07-29T10:16:08;4.97;;;3.42;;
23496;SDS011;11925;48.122;11.560;2022-07-29T10:18:39;4.47;;;3.50;;
23496;SDS011;11925;48.122;11.560;2022-07-29T10:21:10;5.60;;;3.53;;
23496;SDS011;11925;48.122;11.560;2022-07-29T10:24:00;5.28;;;3.28;;
23496;SDS011;11925;48.122;11.560;2022-07-29T10:26:29;4.40;;;3.42;;
23496;SDS011;11925;48.122;11.560;2022-07-29T10:28:59;4.43;;;3.17;;
23496;SDS011;11925;48.122;11.560;2022-07-29T10:31:29;6.20;;;3.45;;
23496;SDS011;11925;48.122;11.560;2022-07-29T10:34:07;3.72;;;2.90;;
23496;SDS011;11925;48.122;11.560;2022-07-29T10:36:47;3.72;;;3.28;;
23496;SDS011;11925;48.122;11.560;2022-07-29T10:39:27;3.88;;;3.00;;
23496;SDS011;11925;48.122;11.560;2022-07-29T10:42:17;4.55;;;3.40;;
23496;SDS011;11925;48.122;11.560;2022-07-29T10:45:01;3.35;;;3.05;;
23496;SDS011;11925;48.122;11.560;2022-07-29T10:50:01;3.80;;;3.40;;
23496;SDS011;11925;48.122;11.560;2022-07-29T10:55:33;4.78;;;3.13;;
23496;SDS011;11925;48.122;11.560;2022-07-29T10:58:12;4.03;;;3.00;;
23496;SDS011;11925;48.122;11.560;2022-07-29T11:00:45;5.22;;;3.17;;
23496;SDS011;11925;48.122;11.560;2022-07-29T11:06:16;3.67;;;2.78;;
23496;SDS011;11925;48.122;11.560;2022-07-29T11:11:50;5.35;;;3.53;;
23496;SDS011;11925;48.122;11.560;2022-07-29T11:14:20;4.63;;;3.30;;
23496;SDS011;11925;48.122;11.560;2022-07-29T11:17:27;4.47;;;3.00;;
23496;SDS011;11925;48.122;11.560;2022-07-29T11:20:31;4.15;;;3.10;;
23496;SDS011;11925;48.122;11.560;2022-07-29T11:23:18;3.92;;;3.20;;
23496;SDS011;11925;48.122;11.560;2022-07-29T11:28:50;5.18;;;3.10;;
23496;SDS011;11925;48.122;11.560;2022-07-29T11:31:31;5.10;;;3.65;;
23496;SDS011;11925;48.122;11.560;2022-07-29T11:34:22;4.18;;;3.63;;
23496;SDS011;11925;48.122;11.560;2022-07-29T11:37:21;4.80;;;2.92;;
23496;SDS011;11925;48.122;11.560;2022-07-29T11:42:44;5.43;;;2.90;;
23496;SDS011;11925;48.122;11.560;2022-07-29T11:45:18;3.70;;;3.08;;
23496;SDS011;11925;48.122;11.560;2022-07-29T11:48:14;3.47;;;3.05;;
23496;SDS011;11925;48.122;11.560;2022-07-29T11:50:58;4.88;;;3.25;;
23496;SDS011;11925;48.122;11.560;2022-07-29T11:53:28;6.32;;;3.10;;
23496;SDS011;11925;48.122;11.560;2022-07-29T11:55:58;6.53;;;3.22;;
23496;SDS011;11925;48.122;11.560;2022-07-29T11:58:28;5.32;;;3.25;;
23496;SDS011;11925;48.122;11.560;2022-07-29T12:00:57;4.05;;;3.13;;
23496;SDS011;11925;48.122;11.560;2022-07-29T12:03:47;4.63;;;3.38;;
23496;SDS011;11925;48.122;11.560;2022-07-29T12:06:17;4.10;;;3.15;;
23496;SDS011;11925;48.122;11.560;2022-07-29T12:09:06;4.05;;;3.38;;
23496;SDS011;11925;48.122;11.560;2022-07-29T12:11:40;3.55;;;3.10;;
23496;SDS011;11925;48.122;11.560;2022-07-29T12:14:24;3.92;;;3.17;;
23496;SDS011;11925;48.122;11.560;2022-07-29T12:16:54;5.30;;;3.30;;
23496;SDS011;11925;48.122;11.560;2022-07-29T12:19:24;4.95;;;3.55;;
23496;SDS011;11925;48.122;11.560;2022-07-29T12:21:54;3.85;;;3.10;;
23496;SDS011;11925;48.122;11.560;2022-07-29T12:24:25;4.15;;;3.13;;
23496;SDS011;11925;48.122;11.560;2022-07-29T12:26:54;3.72;;;3.00;;
23496;SDS011;11925;48.122;11.560;2022-07-29T12:29:23;4.75;;;3.30;;
23496;SDS011;11925;48.122;11.560;2022-07-29T12:32:01;4.43;;;3.22;;
23496;SDS011;11925;48.122;11.560;2022-07-29T12:34:44;4.97;;;4.00;;
23496;SDS011;11925;48.122;11.560;2022-07-29T12:37:14;4.63;;;3.15;;
23496;SDS011;11925;48.122;11.560;2022-07-29T12:39:43;4.78;;;3.13;;
23496;SDS011;11925;48.122;11.560;2022-07-29T12:42:12;3.85;;;3.15;;
23496;SDS011;11925;48.122;11.560;2022-07-29T12:44:44;3.45;;;3.00;;
23496;SDS011;11925;48.122;11.560;2022-07-29T12:47:14;4.85;;;3.45;;
23496;SDS011;11925;48.122;11.560;2022-07-29T12:49:42;3.55;;;3.25;;
23496;SDS011;11925;48.122;11.560;2022-07-29T12:55:00;4.28;;;3.40;;
23496;SDS011;11925;48.122;11.560;2022-07-29T12:57:29;4.13;;;2.88;;
23496;SDS011;11925;48.122;11.560;2022-07-29T13:00:00;4.85;;;3.45;;
23496;SDS011;11925;48.122;11.560;2022-07-29T13:02:34;5.43;;;3.55;;
23496;SDS011;11925;48.122;11.560;2022-07-29T13:05:03;4.07;;;2.80;;
23496;SDS011;11925;48.122;11.560;2022-07-29T13:07:35;4.53;;;3.20;;
23496;SDS011;11925;48.122;11.560;2022-07-29T13:10:22;6.40;;;3.25;;
23496;SDS011;11925;48.122;11.560;2022-07-29T13:13:01;4.55;;;3.20;;
23496;SDS011;11925;48.122;11.560;2022-07-29T13:15:31;5.38;;;3.40;;
23496;SDS011;11925;48.122;11.560;2022-07-29T13:18:00;4.90;;;3.05;;
23496;SDS011;11925;48.122;11.560;2022-07-29T13:20:28;6.22;;;3.53;;
23496;SDS011;11925;48.122;11.560;2022-07-29T13:22:59;5.85;;;3.30;;
23496;SDS011;11925;48.122;11.560;2022-07-29T13:25:28;4.00;;;3.55;;
23496;SDS011;11925;48.122;11.560;2022-07-29T13:27:59;5.45;;;3.20;;
23496;SDS011;11925;48.122;11.560;2022-07-29T13:30:27;5.57;;;3.25;;
23496;SDS011;11925;48.122;11.560;2022-07-29T13:32:56;6.13;;;3.33;;
23496;SDS011;11925;48.122;11.560;2022-07-29T13:35:24;5.47;;;3.08;;
23496;SDS011;11925;48.122;11.560;2022-07-29T13:37:56;4.97;;;3.15;;
23496;SDS011;11925;48.122;11.560;2022-07-29T13:40:25;6.80;;;3.38;;
23496;SDS011;11925;48.122;11.560;2022-07-29T13:42:55;3.92;;;2.80;;
23496;SDS011;11925;48.122;11.560;2022-07-29T13:45:23;4.93;;;3.50;;
23496;SDS011;11925;48.122;11.560;2022-07-29T13:47:54;7.40;;;3.40;;
23496;SDS011;11925;48.122;11.560;2022-07-29T13:50:23;3.67;;;3.30;;
23496;SDS011;11925;48.122;11.560;2022-07-29T13:52:51;5.45;;;3.28;;
23496;SDS011;11925;48.122;11.560;2022-07-29T13:55:19;4.63;;;3.20;;
23496;SDS011;11925;48.122;11.560;2022-07-29T13:57:49;3.67;;;2.88;;
23496;SDS011;11925;48.122;11.560;2022-07-29T14:00:18;4.53;;;3.17;;
23496;SDS011;11925;48.122;11.560;2022-07-29T14:02:46;3.50;;;3.08;;
23496;SDS011;11925;48.122;11.560;2022-07-29T14:05:14;4.60;;;3.25;;
23496;SDS011;11925;48.122;11.560;2022-07-29T14:07:43;4.78;;;3.08;;
23496;SDS011;11925;48.122;11.560;2022-07-29T14:10:11;3.20;;;2.90;;
23496;SDS011;11925;48.122;11.560;2022-07-29T14:12:45;3.53;;;3.10;;
23496;SDS011;11925;48.122;11.560;2022-07-29T14:15:15;4.00;;;3.05;;
23496;SDS011;11925;48.122;11.560;2022-07-29T14:17:43;4.60;;;3.53;;
23496;SDS011;11925;48.122;11.560;2022-07-29T14:20:12;5.05;;;3.50;;
23496;SDS011;11925;48.122;11.560;2022-07-29T14:22:42;6.50;;;3.03;;
23496;SDS011;11925;48.122;11.560;2022-07-29T14:25:11;3.72;;;3.08;;
23496;SDS011;11925;48.122;11.560;2022-07-29T14:27:40;4.93;;;3.58;;
23496;SDS011;11925;48.122;11.560;2022-07-29T14:30:09;3.45;;;2.90;;
23496;SDS011;11925;48.122;11.560;2022-07-29T14:32:40;3.30;;;2.90;;
23496;SDS011;11925;48.122;11.560;2022-07-29T14:35:08;4.22;;;3.10;;
23496;SDS011;11925;48.122;11.560;2022-07-29T14:37:38;3.63;;;3.15;;
23496;SDS011;11925;48.122;11.560;2022-07-29T14:40:07;4.38;;;2.83;;
23496;SDS011;11925;48.122;11.560;2022-07-29T14:42:36;3.10;;;2.63;;
23496;SDS011;11925;48.122;11.560;2022-07-29T14:45:06;3.85;;;3.00;;
23496;SDS011;11925;48.122;11.560;2022-07-29T14:47:35;4.60;;;2.75;;
23496;SDS011;11925;48.122;11.560;2022-07-29T14:50:06;4.57;;;2.63;;
23496;SDS011;11925;48.122;11.560;2022-07-29T14:52:37;4.70;;;2.65;;
23496;SDS011;11925;48.122;11.560;2022-07-29T14:55:06;3.85;;;2.80;;
23496;SDS011;11925;48.122;11.560;2022-07-29T14:57:45;3.95;;;2.33;;
23496;SDS011;11925;48.122;11.560;2022-07-29T15:00:15;3.40;;;2.80;;
23496;SDS011;11925;48.122;11.560;2022-07-29T15:02:44;3.42;;;2.63;;
23496;SDS011;11925;48.122;11.560;2022-07-29T15:05:29;4.22;;;2.47;;
23496;SDS011;11925;48.122;11.560;2022-07-29T15:07:58;3.53;;;2.70;;
23496;SDS011;11925;48.122;11.560;2022-07-29T15:10:26;4.13;;;2.67;;
23496;SDS011;11925;48.122;11.560;2022-07-29T15:12:55;4.05;;;2.50;;
23496;SDS011;11925;48.122;11.560;2022-07-29T15:15:24;3.75;;;2.47;;
23496;SDS011;11925;48.122;11.560;2022-07-29T15:17:52;4.60;;;2.92;;
23496;SDS011;11925;48.122;11.560;2022-07-29T15:20:20;4.10;;;3.30;;
23496;SDS011;11925;48.122;11.560;2022-07-29T15:22:53;3.27;;;2.63;;
23496;SDS011;11925;48.122;11.560;2022-07-29T15:25:22;7.03;;;2.60;;
23496;SDS011;11925;48.122;11.560;2022-07-29T15:27:50;3.25;;;2.60;;